createdAt,value
2022-09-28T00:01:22.662Z,98527.08
2022-09-28T00:03:52.584Z,98527.06
2022-09-28T00:06:24.112Z,98522.83
2022-09-28T00:08:51.623Z,98521.59
2022-09-28T00:11:21.072Z,98518.56
2022-09-28T00:13:56.161Z,98514.27
2022-09-28T00:16:29.570Z,98514.10
2022-09-28T00:18:57.336Z,98516.02
2022-09-28T00:21:28.151Z,98517.94
2022-09-28T00:24:16.777Z,98517.05
2022-09-28T00:26:56.198Z,98521.10
2022-09-28T00:29:41.640Z,98524.09
2022-09-28T00:32:13.689Z,98521.25
2022-09-28T00:34:48.757Z,98522.83
2022-09-28T00:37:16.125Z,98520.16
2022-09-28T00:39:43.780Z,98518.38
2022-09-28T00:42:17.379Z,98521.16
2022-09-28T00:44:55.856Z,98520.95
2022-09-28T00:47:51.580Z,98518.98
2022-09-28T00:50:28.659Z,98522.29
2022-09-28T00:53:21.287Z,98523.34
2022-09-28T00:55:54.401Z,98518.70
2022-09-28T00:58:27.260Z,98516.39
2022-09-28T01:00:57.852Z,98519.38
2022-09-28T01:03:28.549Z,98520.25
2022-09-28T01:05:58.110Z,98521.30
2022-09-28T01:08:29.155Z,98522.69
2022-09-28T01:10:59.103Z,98520.39
2022-09-28T01:13:27.025Z,98518.07
2022-09-28T01:16:21.612Z,98514.36
2022-09-28T01:19:17.722Z,98513.85
2022-09-28T01:21:44.683Z,98506.78
2022-09-28T01:24:24.875Z,98505.55
2022-09-28T01:27:10.979Z,98503.62
2022-09-28T01:29:46.882Z,98503.80
2022-09-28T01:32:22.759Z,98507.52
2022-09-28T01:35:02.946Z,98503.46
2022-09-28T01:38:04.678Z,98505.05
2022-09-28T01:40:34.289Z,98510.34
2022-09-28T01:43:10.717Z,98512.63
2022-09-28T01:45:48.681Z,98511.05
2022-09-28T01:48:24.422Z,98511.06
2022-09-28T01:50:57.509Z,98502.95
2022-09-28T01:53:41.004Z,98496.45
2022-09-28T01:56:17.383Z,98491.01
2022-09-28T01:59:01.130Z,98494.59
2022-09-28T02:01:38.969Z,98499.20
2022-09-28T02:04:18.209Z,98501.13
2022-09-28T02:07:28.872Z,98506.60
2022-09-28T02:10:00.444Z,98512.05
2022-09-28T02:12:35.724Z,98514.85
2022-09-28T02:15:20.394Z,98514.84
2022-09-28T02:17:47.930Z,98515.20
2022-09-28T02:20:16.584Z,98512.38
2022-09-28T02:22:53.394Z,98510.06
2022-09-28T02:26:03.391Z,98504.59
2022-09-28T02:28:31.137Z,98500.22
2022-09-28T02:30:58.199Z,98499.17
2022-09-28T02:33:31.672Z,98499.16
2022-09-28T02:36:00.538Z,98504.95
2022-09-28T02:38:27.700Z,98498.76
2022-09-28T02:41:21.321Z,98498.95
2022-09-28T02:44:26.241Z,98501.39
2022-09-28T02:47:04.212Z,98510.91
2022-09-28T02:49:34.417Z,98509.51
2022-09-28T02:52:07.657Z,98509.73
2022-09-28T02:54:54.069Z,98512.23
2022-09-28T02:57:56.643Z,98513.14
2022-09-28T03:00:24.436Z,98508.39
2022-09-28T03:03:20.061Z,98503.63
2022-09-28T03:06:09.395Z,98505.21
2022-09-28T03:08:54.315Z,98507.69
2022-09-28T03:11:46.912Z,98507.34
2022-09-28T03:14:15.002Z,98502.05
2022-09-28T03:16:46.081Z,98505.94
2022-09-28T03:19:13.947Z,98506.29
2022-09-28T03:21:41.643Z,98504.52
2022-09-28T03:24:10.858Z,98508.23
2022-09-28T03:26:38.671Z,98505.58
2022-09-28T03:29:06.157Z,98507.67
2022-09-28T03:31:34.914Z,98501.99
2022-09-28T03:34:02.283Z,98502.00
2022-09-28T03:36:29.864Z,98506.23
2022-09-28T03:38:57.193Z,98505.35
2022-09-28T03:41:24.548Z,98506.23
2022-09-28T03:43:52.027Z,98502.89
2022-09-28T03:46:19.321Z,98505.70
2022-09-28T03:48:46.610Z,98503.05
2022-09-28T03:51:13.827Z,98503.06
2022-09-28T03:53:41.050Z,98501.98
2022-09-28T03:56:12.730Z,98498.97
2022-09-28T03:58:40.295Z,98503.04
2022-09-28T04:01:16.551Z,98504.09
2022-09-28T04:03:45.219Z,98504.05
2022-09-28T04:06:13.582Z,98507.90
2022-09-28T04:08:40.877Z,98504.88
2022-09-28T04:11:08.094Z,98506.47
2022-09-28T04:13:35.515Z,98510.70
2022-09-28T04:16:03.528Z,98512.45
2022-09-28T04:18:32.325Z,98512.08
2022-09-28T04:21:03.073Z,98513.63
2022-09-28T04:23:30.410Z,98514.48
2022-09-28T04:25:57.619Z,98513.58
2022-09-28T04:28:43.752Z,98513.02
2022-09-28T04:31:13.543Z,98511.79
2022-09-28T04:33:40.854Z,98513.50
2022-09-28T04:36:09.116Z,98511.54
2022-09-28T04:38:52.198Z,98510.66
2022-09-28T04:41:24.930Z,98506.06
2022-09-28T04:43:52.582Z,98503.05
2022-09-28T04:46:19.952Z,98498.61
2022-09-28T04:48:47.201Z,98498.75
2022-09-28T04:51:14.477Z,98498.58
2022-09-28T04:53:41.515Z,98505.61
2022-09-28T04:56:12.198Z,98506.30
2022-09-28T04:58:43.374Z,98510.35
2022-09-28T05:01:16.877Z,98512.28
2022-09-28T05:03:46.079Z,98514.55
2022-09-28T05:06:15.295Z,98511.20
2022-09-28T05:08:48.903Z,98511.00
2022-09-28T05:11:18.074Z,98512.02
2022-09-28T05:13:48.296Z,98514.14
2022-09-28T05:16:16.804Z,98510.96
2022-09-28T05:18:44.847Z,98509.77
2022-09-28T05:21:15.258Z,98510.64
2022-09-28T05:23:47.089Z,98510.80
2022-09-28T05:26:15.327Z,98512.02
2022-09-28T05:28:46.105Z,98515.55
2022-09-28T05:31:15.353Z,98516.09
2022-09-28T05:33:42.925Z,98519.81
2022-09-28T05:36:13.749Z,98515.05
2022-09-28T05:38:42.650Z,98522.95
2022-09-28T05:41:10.106Z,98522.92
2022-09-28T05:43:38.438Z,98527.14
2022-09-28T05:46:08.671Z,98531.86
2022-09-28T05:48:37.912Z,98536.08
2022-09-28T05:51:06.304Z,98545.73
2022-09-28T05:56:50.514Z,98549.21
2022-09-28T05:59:17.989Z,98556.09
2022-09-28T06:02:07.287Z,98558.39
2022-09-28T06:05:19.917Z,98565.80
2022-09-28T06:08:32.126Z,98560.86
2022-09-28T06:11:07.979Z,98557.91
2022-09-28T06:13:51.215Z,98557.57
2022-09-28T06:20:03.975Z,98561.46
2022-09-28T06:22:34.100Z,98563.08
2022-09-28T06:25:11.089Z,98560.45
2022-09-28T06:27:42.408Z,98566.64
2022-09-28T06:30:10.571Z,98567.33
2022-09-28T06:32:41.576Z,98569.60
2022-09-28T06:35:09.903Z,98575.02
2022-09-28T06:37:38.333Z,98573.09
2022-09-28T06:40:06.192Z,98572.91
2022-09-28T06:42:33.811Z,98571.71
2022-09-28T06:45:05.989Z,98573.80
2022-09-28T06:47:33.838Z,98571.38
2022-09-28T06:50:53.458Z,98567.35
2022-09-28T06:53:38.232Z,98570.45
2022-09-28T06:56:14.682Z,98572.97
2022-09-28T06:58:47.795Z,98574.45
2022-09-28T07:01:16.154Z,98584.48
2022-09-28T07:03:44.089Z,98583.41
2022-09-28T07:06:12.886Z,98587.60
2022-09-28T07:08:41.053Z,98588.11
2022-09-28T07:11:08.629Z,98591.09
2022-09-28T07:13:49.919Z,98589.39
2022-09-28T07:16:26.771Z,98589.47
2022-09-28T07:19:00.279Z,98589.86
2022-09-28T07:21:30.697Z,98591.29
2022-09-28T07:24:01.257Z,98588.86
2022-09-28T07:26:29.029Z,98589.78
2022-09-28T07:29:00.383Z,98588.14
2022-09-28T07:31:29.102Z,98586.89
2022-09-28T07:33:58.366Z,98587.45
2022-09-28T07:36:31.622Z,98590.00
2022-09-28T07:38:59.104Z,98590.39
2022-09-28T07:41:35.663Z,98592.01
2022-09-28T07:44:06.270Z,98596.47
2022-09-28T07:46:37.534Z,98596.41
2022-09-28T07:49:08.383Z,98597.45
2022-09-28T07:51:38.673Z,98604.38
2022-09-28T07:54:06.226Z,98601.82
2022-09-28T07:56:36.266Z,98604.69
2022-09-28T07:59:03.594Z,98610.71
2022-09-28T08:01:30.944Z,98606.86
2022-09-28T08:03:58.119Z,98608.61
2022-09-28T08:06:25.131Z,98612.35
2022-09-28T08:08:55.862Z,98610.57
2022-09-28T08:11:22.765Z,98618.35
2022-09-28T08:13:51.097Z,98618.20
2022-09-28T08:16:18.605Z,98617.49
2022-09-28T08:18:48.648Z,98620.35
2022-09-28T08:21:34.200Z,98619.52
2022-09-28T08:24:01.335Z,98621.52
2022-09-28T08:26:28.952Z,98622.79
2022-09-28T08:28:56.310Z,98619.64
2022-09-28T08:31:23.282Z,98624.41
2022-09-28T08:33:53.458Z,98620.91
2022-09-28T08:36:20.661Z,98622.91
2022-09-28T08:38:47.687Z,98624.15
2022-09-28T08:41:34.563Z,98620.48
2022-09-28T08:44:09.218Z,98621.77
2022-09-28T08:46:42.076Z,98622.84
2022-09-28T08:49:25.425Z,98621.24
2022-09-28T08:51:59.067Z,98617.87
2022-09-28T08:54:38.436Z,98619.14
2022-09-28T08:57:11.125Z,98623.08
2022-09-28T09:00:00.052Z,98625.23
2022-09-28T09:02:34.076Z,98625.27
2022-09-28T09:05:06.092Z,98624.56
2022-09-28T09:08:00.499Z,98623.35
2022-09-28T09:10:55.964Z,98619.83
2022-09-28T09:13:38.400Z,98625.33
2022-09-28T09:16:17.855Z,98622.48
2022-09-28T09:19:17.080Z,98627.98
2022-09-28T09:22:22.663Z,98621.60
2022-09-28T09:24:54.725Z,98626.37
2022-09-28T09:27:46.363Z,98625.84
2022-09-28T09:30:21.667Z,98626.90
2022-09-28T09:33:07.111Z,98629.20
2022-09-28T09:36:26.023Z,98627.25
2022-09-28T09:39:34.796Z,98629.03
2022-09-28T09:42:50.912Z,98629.03
2022-09-28T09:45:28.757Z,98628.15
2022-09-28T09:48:07.374Z,98631.16
2022-09-28T09:50:47.447Z,98636.45
2022-09-28T09:53:18.778Z,98636.61
2022-09-28T09:55:49.993Z,98641.14
2022-09-28T09:58:17.150Z,98639.09
2022-09-28T10:00:47.820Z,98640.23
2022-09-28T10:03:36.346Z,98644.17
2022-09-28T10:06:08.064Z,98643.74
2022-09-28T10:08:48.685Z,98640.48
2022-09-28T10:11:18.909Z,98645.29
2022-09-28T10:14:30.306Z,98643.91
2022-09-28T10:17:02.776Z,98644.46
2022-09-28T10:19:42.818Z,98646.57
2022-09-28T10:22:25.269Z,98647.73
2022-09-28T10:24:57.401Z,98648.36
2022-09-28T10:27:36.134Z,98646.88
2022-09-28T10:30:19.678Z,98649.23
2022-09-28T10:32:48.813Z,98650.21
2022-09-28T10:35:19.974Z,98651.31
2022-09-28T10:37:59.593Z,98649.56
2022-09-28T10:49:17.264Z,98643.29
2022-09-28T10:51:51.795Z,98641.80
2022-09-28T10:54:26.683Z,98645.09
2022-09-28T10:56:58.911Z,98639.25
2022-09-28T10:59:31.318Z,98637.96
2022-09-28T11:02:25.285Z,98641.49
2022-09-28T11:04:59.166Z,98638.02
2022-09-28T11:07:30.517Z,98638.30
2022-09-28T11:09:59.846Z,98634.55
2022-09-28T11:12:43.248Z,98632.15
2022-09-28T11:15:19.258Z,98636.24
2022-09-28T11:17:48.262Z,98640.49
2022-09-28T11:20:27.795Z,98639.37
2022-09-28T11:23:04.136Z,98635.52
2022-09-28T11:25:35.097Z,98629.84
2022-09-28T11:28:35.609Z,98634.53
2022-09-28T11:31:21.835Z,98629.59
2022-09-28T11:34:31.579Z,98622.08
2022-09-28T11:37:29.489Z,98626.82
2022-09-28T11:40:28.474Z,98630.23
2022-09-28T11:43:08.063Z,98631.25
2022-09-28T11:45:46.475Z,98631.30
2022-09-28T11:48:33.572Z,98632.45
2022-09-28T11:51:09.944Z,98631.85
2022-09-28T11:54:15.313Z,98636.22
2022-09-28T11:56:52.130Z,98640.56
2022-09-28T11:59:29.581Z,98643.45
2022-09-28T12:02:00.608Z,98646.14
2022-09-28T12:04:35.431Z,98648.70
2022-09-28T12:07:09.930Z,98650.16
2022-09-28T12:10:15.650Z,98654.25
2022-09-28T12:13:09.733Z,98656.55
2022-09-28T12:16:12.772Z,98656.79
2022-09-28T12:18:47.007Z,98658.30
2022-09-28T12:21:38.587Z,98657.98
2022-09-28T12:24:17.858Z,98654.27
2022-09-28T12:27:00.286Z,98652.86
2022-09-28T12:29:44.095Z,98657.46
2022-09-28T12:32:35.336Z,98659.86
2022-09-28T12:35:10.449Z,98654.35
2022-09-28T12:37:56.357Z,98653.08
2022-09-28T12:40:27.008Z,98650.87
2022-09-28T12:43:28.762Z,98651.55
2022-09-28T12:46:17.281Z,98653.43
2022-09-28T12:49:47.304Z,98645.64
2022-09-28T12:51:57.445Z,98646.61
2022-09-28T12:54:38.495Z,98640.87
2022-09-28T12:57:36.120Z,98641.73
2022-09-28T13:00:23.285Z,98642.96
2022-09-28T13:03:16.638Z,98638.39
2022-09-28T13:06:08.058Z,98629.56
2022-09-28T13:08:47.227Z,98626.04
2022-09-28T13:11:45.428Z,98620.59
2022-09-28T13:14:34.499Z,98622.79
2022-09-28T13:17:13.591Z,98616.35
2022-09-28T13:19:58.652Z,98618.20
2022-09-28T13:22:25.876Z,98624.73
2022-09-28T13:24:57.622Z,98616.10
2022-09-28T13:27:45.121Z,98620.58
2022-09-28T13:30:14.923Z,98618.80
2022-09-28T13:32:43.696Z,98616.42
2022-09-28T13:35:19.195Z,98617.38
2022-09-28T13:37:47.612Z,98618.18
2022-09-28T13:40:14.810Z,98615.61
2022-09-28T13:42:45.986Z,98617.11
2022-09-28T13:45:20.418Z,98618.99
2022-09-28T13:47:52.231Z,98619.69
2022-09-28T13:50:47.781Z,98617.89
2022-09-28T13:53:21.392Z,98610.29
2022-09-28T13:56:14.303Z,98613.84
2022-09-28T13:58:48.008Z,98612.33
2022-09-28T14:01:32.526Z,98614.33
2022-09-28T14:04:23.401Z,98616.95
2022-09-28T14:06:57.198Z,98619.80
2022-09-28T14:09:42.510Z,98619.64
2022-09-28T14:12:36.161Z,98614.29
2022-09-28T14:15:26.371Z,98617.05
2022-09-28T14:18:08.034Z,98623.56
2022-09-28T14:20:36.585Z,98623.38
2022-09-28T14:23:25.973Z,98620.62
2022-09-28T14:26:20.441Z,98626.92
2022-09-28T14:29:14.677Z,98630.02
2022-09-28T14:31:43.450Z,98626.19
2022-09-28T14:34:32.587Z,98622.84
2022-09-28T14:37:20.365Z,98617.02
2022-09-28T14:40:06.622Z,98615.93
2022-09-28T14:42:36.075Z,98619.58
2022-09-28T14:45:07.785Z,98621.83
2022-09-28T14:47:38.070Z,98623.76
2022-09-28T14:50:29.025Z,98623.39
2022-09-28T14:53:13.396Z,98623.58
2022-09-28T14:55:49.857Z,98627.69
2022-09-28T14:58:22.073Z,98627.37
2022-09-28T15:00:57.558Z,98624.04
2022-09-28T15:03:29.672Z,98621.95
2022-09-28T15:05:58.232Z,98626.98
2022-09-28T15:08:36.931Z,98629.84
2022-09-28T15:11:05.789Z,98630.38
2022-09-28T15:13:33.287Z,98628.08
2022-09-28T15:16:09.544Z,98627.92
2022-09-28T15:19:15.629Z,98633.25
2022-09-28T15:21:51.037Z,98638.59
2022-09-28T15:24:33.280Z,98638.60
2022-09-28T15:27:18.621Z,98637.91
2022-09-28T15:29:59.350Z,98632.63
2022-09-28T15:32:29.261Z,98630.50
2022-09-28T15:34:58.122Z,98628.92
2022-09-28T15:37:29.396Z,98628.93
2022-09-28T15:39:59.087Z,98633.00
2022-09-28T15:42:26.718Z,98637.59
2022-09-28T15:45:22.849Z,98638.50
2022-09-28T15:47:57.285Z,98642.95
2022-09-28T15:50:28.927Z,98641.02
2022-09-28T15:53:00.747Z,98640.33
2022-09-28T15:55:44.564Z,98633.95
2022-09-28T15:58:22.989Z,98628.30
2022-09-28T16:01:12.515Z,98622.67
2022-09-28T16:03:40.298Z,98628.13
2022-09-28T16:06:10.312Z,98633.80
2022-09-28T16:08:43.899Z,98637.01
2022-09-28T16:11:28.903Z,98636.64
2022-09-28T16:14:25.441Z,98628.50
2022-09-28T16:16:55.367Z,98626.39
2022-09-28T16:19:37.710Z,98625.69
2022-09-28T16:22:11.615Z,98618.77
2022-09-28T16:24:54.322Z,98612.08
2022-09-28T16:27:41.506Z,98608.16
2022-09-28T16:30:11.955Z,98616.11
2022-09-28T16:32:53.015Z,98615.05
2022-09-28T16:35:26.490Z,98612.39
2022-09-28T16:37:58.199Z,98607.27
2022-09-28T16:40:26.504Z,98601.25
2022-09-28T16:42:57.414Z,98608.52
2022-09-28T16:45:24.905Z,98606.55
2022-09-28T16:47:55.103Z,98608.49
2022-09-28T16:50:23.074Z,98601.95
2022-09-28T16:53:17.193Z,98600.36
2022-09-28T16:55:46.304Z,98596.29
2022-09-28T16:58:13.710Z,98606.71
2022-09-28T17:00:43.080Z,98615.55
2022-09-28T17:03:19.140Z,98617.49
2022-09-28T17:05:47.604Z,98611.13
2022-09-28T17:08:17.721Z,98604.59
2022-09-28T17:11:13.070Z,98609.54
2022-09-28T17:13:41.560Z,98611.83
2022-09-28T17:16:18.812Z,98612.35
2022-09-28T17:18:48.561Z,98605.46
2022-09-28T17:21:19.474Z,98603.86
2022-09-28T17:23:53.489Z,98595.55
2022-09-28T17:26:35.396Z,98594.84
2022-09-28T17:29:03.026Z,98595.91
2022-09-28T17:31:34.145Z,98593.61
2022-09-28T17:34:02.839Z,98594.67
2022-09-28T17:36:34.320Z,98596.79
2022-09-28T17:39:01.584Z,98595.54
2022-09-28T17:41:29.898Z,98595.36
2022-09-28T17:43:58.410Z,98595.52
2022-09-28T17:46:30.496Z,98592.35
2022-09-28T17:49:08.540Z,98601.36
2022-09-28T17:51:42.553Z,98600.64
2022-09-28T17:54:12.677Z,98599.59
2022-09-28T17:56:40.976Z,98604.52
2022-09-28T17:59:13.904Z,98611.23
2022-09-28T18:01:41.329Z,98615.83
2022-09-28T18:04:27.672Z,98619.89
2022-09-28T18:07:01.108Z,98622.88
2022-09-28T18:09:28.954Z,98625.00
2022-09-28T18:12:01.841Z,98630.99
2022-09-28T18:14:30.081Z,98636.63
2022-09-28T18:16:59.680Z,98644.40
2022-09-28T18:19:31.743Z,98647.56
2022-09-28T18:22:01.509Z,98658.86
2022-09-28T18:24:29.621Z,98664.67
2022-09-28T18:26:57.787Z,98672.79
2022-09-28T18:29:32.870Z,98677.17
2022-09-28T18:32:02.885Z,98681.37
2022-09-28T18:34:31.761Z,98688.04
2022-09-28T18:37:00.234Z,98698.57
2022-09-28T18:39:27.320Z,98705.03
2022-09-28T18:41:58.585Z,98710.23
2022-09-28T18:44:32.585Z,98711.58
2022-09-28T18:47:02.960Z,98712.39
2022-09-28T18:49:33.190Z,98712.73
2022-09-28T18:52:01.246Z,98715.50
2022-09-28T18:54:28.221Z,98719.64
2022-09-28T18:56:58.231Z,98723.63
2022-09-28T18:59:26.331Z,98724.45
2022-09-28T19:01:56.271Z,98729.52
2022-09-28T19:04:23.779Z,98734.45
2022-09-28T19:06:54.882Z,98731.76
2022-09-28T19:09:26.197Z,98734.17
2022-09-28T19:11:53.967Z,98739.38
2022-09-28T19:14:24.507Z,98741.81
2022-09-28T19:16:51.701Z,98733.98
2022-09-28T19:19:20.719Z,98735.69
2022-09-28T19:21:48.342Z,98731.11
2022-09-28T19:24:21.085Z,98720.05
2022-09-28T19:26:54.841Z,98714.84
2022-09-28T19:29:23.434Z,98712.39
2022-09-28T19:31:51.522Z,98710.62
2022-09-28T19:34:24.000Z,98702.70
2022-09-28T19:36:51.264Z,98691.06
2022-09-28T19:39:18.790Z,98692.30
2022-09-28T19:41:53.449Z,98686.73
2022-09-28T19:44:27.910Z,98684.64
2022-09-28T19:47:07.174Z,98676.17
2022-09-28T19:49:42.038Z,98667.80
2022-09-28T19:52:21.670Z,98658.45
2022-09-28T19:55:00.149Z,98656.67
2022-09-28T19:57:32.293Z,98656.81
2022-09-28T20:00:07.928Z,98654.16
2022-09-28T20:02:38.970Z,98664.02
2022-09-28T20:05:07.613Z,98668.55
2022-09-28T20:07:36.652Z,98667.64
2022-09-28T20:10:06.822Z,98668.70
2022-09-28T20:12:42.109Z,98664.84
2022-09-28T20:15:16.310Z,98663.10
2022-09-28T20:17:45.932Z,98665.38
2022-09-28T20:20:15.348Z,98667.28
2022-09-28T20:22:44.450Z,98670.63
2022-09-28T20:25:13.798Z,98670.32
2022-09-28T20:27:42.669Z,98670.36
2022-09-28T20:30:11.961Z,98671.59
2022-09-28T20:32:39.438Z,98674.92
2022-09-28T20:35:07.274Z,98678.38
2022-09-28T20:37:34.481Z,98678.14
2022-09-28T20:40:01.841Z,98670.73
2022-09-28T20:42:30.905Z,98671.58
2022-09-28T20:44:58.860Z,98672.28
2022-09-28T20:47:25.860Z,98672.59
2022-09-28T20:49:52.931Z,98669.52
2022-09-28T20:52:20.185Z,98669.98
2022-09-28T20:54:47.390Z,98671.91
2022-09-28T20:57:17.663Z,98672.48
2022-09-28T20:59:52.276Z,98674.60
2022-09-28T21:02:22.290Z,98669.06
2022-09-28T21:04:49.862Z,98672.64
2022-09-28T21:07:16.966Z,98671.17
2022-09-28T21:09:44.095Z,98671.46
2022-09-28T21:12:12.495Z,98674.63
2022-09-28T21:14:39.652Z,98675.33
2022-09-28T21:17:06.874Z,98676.16
2022-09-28T21:19:34.005Z,98678.60
2022-09-28T21:22:01.324Z,98679.66
2022-09-28T21:24:28.492Z,98676.26
2022-09-28T21:26:55.788Z,98681.32
2022-09-28T21:29:22.865Z,98681.65
2022-09-28T21:31:50.037Z,98679.69
2022-09-28T21:34:19.623Z,98679.30
2022-09-28T21:36:50.721Z,98675.58
2022-09-28T21:39:19.655Z,98679.05
2022-09-28T21:41:46.835Z,98682.81
2022-09-28T21:44:14.085Z,98683.28
2022-09-28T21:46:41.664Z,98685.00
2022-09-28T21:49:12.302Z,98688.33
2022-09-28T21:51:39.356Z,98688.92
2022-09-28T21:54:06.633Z,98690.27
2022-09-28T21:56:33.806Z,98697.94
2022-09-28T21:59:01.173Z,98697.81
2022-09-28T22:01:28.960Z,98699.52
2022-09-28T22:03:57.809Z,98703.35
2022-09-28T22:06:30.992Z,98708.95
2022-09-28T22:08:59.159Z,98712.85
2022-09-28T22:11:29.263Z,98712.83
2022-09-28T22:13:59.735Z,98710.66
2022-09-28T22:16:30.128Z,98712.52
2022-09-28T22:18:58.831Z,98717.92
2022-09-28T22:21:28.497Z,98723.89
2022-09-28T22:24:01.153Z,98722.65
2022-09-28T22:26:30.736Z,98724.24
2022-09-28T22:29:00.819Z,98723.93
2022-09-28T22:31:31.500Z,98719.86
2022-09-28T22:33:58.661Z,98721.10
2022-09-28T22:36:27.110Z,98718.00
2022-09-28T22:38:56.058Z,98715.77
2022-09-28T22:41:24.803Z,98718.04
2022-09-28T22:43:54.528Z,98726.75
2022-09-28T22:46:25.219Z,98730.51
2022-09-28T22:48:55.401Z,98736.48
2022-09-28T22:51:24.158Z,98730.65
2022-09-28T22:53:51.804Z,98720.95
2022-09-28T22:56:20.481Z,98720.20
2022-09-28T22:58:47.854Z,98720.87
2022-09-28T23:01:21.621Z,98725.36
2022-09-28T23:03:50.655Z,98721.52
2022-09-28T23:06:20.832Z,98724.20
2022-09-28T23:08:51.234Z,98728.26
2022-09-28T23:11:18.947Z,98731.17
2022-09-28T23:13:51.452Z,98737.27
2022-09-28T23:16:20.022Z,98738.70
2022-09-28T23:18:49.419Z,98737.86
2022-09-28T23:21:19.384Z,98738.05
2022-09-28T23:23:52.151Z,98744.29
2022-09-28T23:26:24.166Z,98745.63
2022-09-28T23:28:53.257Z,98740.55
2022-09-28T23:31:23.637Z,98738.98
2022-09-28T23:33:51.773Z,98739.02
2022-09-28T23:36:19.656Z,98744.77
2022-09-28T23:38:47.637Z,98750.03
2022-09-28T23:41:15.013Z,98747.80
2022-09-28T23:43:42.224Z,98747.39
2022-09-28T23:46:09.698Z,98754.59
2022-09-28T23:48:37.004Z,98765.30
2022-09-28T23:51:04.547Z,98770.29
2022-09-28T23:53:31.999Z,98767.72
2022-09-28T23:55:59.561Z,98775.52
2022-09-28T23:58:27.314Z,98779.07
